sensor_id;sensor_type;location;lat;lon;timestamp;P1;durP1;ratioP1;P2;durP2;ratioP2
67995;SDS011;54772;53.544;49.324;2022-09-03T00:01:27;13.35;;;8.45;;
67995;SDS011;54772;53.544;49.324;2022-09-03T00:07:14;13.52;;;8.27;;
67995;SDS011;54772;53.544;49.324;2022-09-03T00:09:45;14.63;;;8.52;;
67995;SDS011;54772;53.544;49.324;2022-09-03T00:12:20;13.90;;;8.05;;
67995;SDS011;54772;53.544;49.324;2022-09-03T00:14:55;15.43;;;8.85;;
67995;SDS011;54772;53.544;49.324;2022-09-03T00:17:43;12.02;;;8.30;;
67995;SDS011;54772;53.544;49.324;2022-09-03T00:20:41;12.68;;;7.75;;
67995;SDS011;54772;53.544;49.324;2022-09-03T00:23:23;15.00;;;8.32;;
67995;SDS011;54772;53.544;49.324;2022-09-03T00:25:57;14.35;;;7.53;;
67995;SDS011;54772;53.544;49.324;2022-09-03T00:28:58;12.18;;;7.68;;
67995;SDS011;54772;53.544;49.324;2022-09-03T00:31:32;14.13;;;7.70;;
67995;SDS011;54772;53.544;49.324;2022-09-03T00:34:06;11.90;;;7.97;;
67995;SDS011;54772;53.544;49.324;2022-09-03T00:36:47;12.37;;;7.37;;
67995;SDS011;54772;53.544;49.324;2022-09-03T00:39:15;14.70;;;8.40;;
67995;SDS011;54772;53.544;49.324;2022-09-03T00:55:56;12.57;;;7.82;;
67995;SDS011;54772;53.544;49.324;2022-09-03T01:00:47;11.48;;;7.15;;
67995;SDS011;54772;53.544;49.324;2022-09-03T01:13:43;11.45;;;7.68;;
67995;SDS011;54772;53.544;49.324;2022-09-03T01:30:05;13.55;;;9.68;;
67995;SDS011;54772;53.544;49.324;2022-09-03T01:35:21;14.40;;;10.23;;
67995;SDS011;54772;53.544;49.324;2022-09-03T01:38:08;15.30;;;10.70;;
67995;SDS011;54772;53.544;49.324;2022-09-03T01:43:33;14.43;;;9.68;;
67995;SDS011;54772;53.544;49.324;2022-09-03T01:46:16;16.77;;;10.15;;
67995;SDS011;54772;53.544;49.324;2022-09-03T01:51:40;13.80;;;10.05;;
67995;SDS011;54772;53.544;49.324;2022-09-03T01:59:26;13.93;;;9.93;;
67995;SDS011;54772;53.544;49.324;2022-09-03T02:02:25;12.35;;;9.30;;
67995;SDS011;54772;53.544;49.324;2022-09-03T02:07:34;13.27;;;9.57;;
67995;SDS011;54772;53.544;49.324;2022-09-03T02:10:04;16.12;;;9.00;;
67995;SDS011;54772;53.544;49.324;2022-09-03T02:12:33;13.93;;;9.32;;
67995;SDS011;54772;53.544;49.324;2022-09-03T02:15:03;15.07;;;10.32;;
67995;SDS011;54772;53.544;49.324;2022-09-03T02:17:32;14.32;;;10.68;;
67995;SDS011;54772;53.544;49.324;2022-09-03T02:20:00;16.75;;;11.70;;
67995;SDS011;54772;53.544;49.324;2022-09-03T02:22:31;18.23;;;11.38;;
67995;SDS011;54772;53.544;49.324;2022-09-03T02:24:57;15.93;;;10.25;;
67995;SDS011;54772;53.544;49.324;2022-09-03T02:27:24;17.35;;;10.77;;
67995;SDS011;54772;53.544;49.324;2022-09-03T02:29:51;13.77;;;9.68;;
67995;SDS011;54772;53.544;49.324;2022-09-03T02:32:18;14.10;;;9.75;;
67995;SDS011;54772;53.544;49.324;2022-09-03T02:34:45;17.37;;;9.73;;
67995;SDS011;54772;53.544;49.324;2022-09-03T02:37:15;15.05;;;9.85;;
67995;SDS011;54772;53.544;49.324;2022-09-03T02:39:42;15.45;;;10.50;;
67995;SDS011;54772;53.544;49.324;2022-09-03T02:42:10;13.18;;;9.32;;
67995;SDS011;54772;53.544;49.324;2022-09-03T02:44:40;12.68;;;9.32;;
67995;SDS011;54772;53.544;49.324;2022-09-03T02:47:09;13.88;;;9.23;;
67995;SDS011;54772;53.544;49.324;2022-09-03T02:49:36;12.88;;;8.57;;
67995;SDS011;54772;53.544;49.324;2022-09-03T02:52:03;14.87;;;8.95;;
67995;SDS011;54772;53.544;49.324;2022-09-03T02:54:37;11.77;;;8.00;;
67995;SDS011;54772;53.544;49.324;2022-09-03T02:57:08;11.80;;;8.57;;
67995;SDS011;54772;53.544;49.324;2022-09-03T02:59:35;11.48;;;8.27;;
67995;SDS011;54772;53.544;49.324;2022-09-03T03:02:04;13.90;;;7.78;;
67995;SDS011;54772;53.544;49.324;2022-09-03T03:04:31;13.05;;;7.80;;
67995;SDS011;54772;53.544;49.324;2022-09-03T03:06:58;10.18;;;7.70;;
67995;SDS011;54772;53.544;49.324;2022-09-03T03:09:24;9.98;;;7.20;;
67995;SDS011;54772;53.544;49.324;2022-09-03T03:11:52;9.13;;;6.68;;
67995;SDS011;54772;53.544;49.324;2022-09-03T03:14:19;9.60;;;6.75;;
67995;SDS011;54772;53.544;49.324;2022-09-03T03:16:47;11.48;;;6.57;;
67995;SDS011;54772;53.544;49.324;2022-09-03T03:19:14;9.07;;;6.07;;
67995;SDS011;54772;53.544;49.324;2022-09-03T03:21:40;10.68;;;6.72;;
67995;SDS011;54772;53.544;49.324;2022-09-03T03:24:07;11.07;;;6.05;;
67995;SDS011;54772;53.544;49.324;2022-09-03T03:26:34;9.23;;;5.65;;
67995;SDS011;54772;53.544;49.324;2022-09-03T03:29:01;7.55;;;5.60;;
67995;SDS011;54772;53.544;49.324;2022-09-03T03:31:31;7.95;;;5.30;;
67995;SDS011;54772;53.544;49.324;2022-09-03T03:34:01;9.02;;;5.70;;
67995;SDS011;54772;53.544;49.324;2022-09-03T03:36:29;8.68;;;5.82;;
67995;SDS011;54772;53.544;49.324;2022-09-03T03:38:58;7.85;;;5.37;;
67995;SDS011;54772;53.544;49.324;2022-09-03T03:41:28;13.62;;;6.07;;
67995;SDS011;54772;53.544;49.324;2022-09-03T03:43:57;10.80;;;6.57;;
67995;SDS011;54772;53.544;49.324;2022-09-03T03:46:27;9.18;;;6.12;;
67995;SDS011;54772;53.544;49.324;2022-09-03T03:49:04;8.15;;;6.00;;
67995;SDS011;54772;53.544;49.324;2022-09-03T03:51:32;9.02;;;6.30;;
67995;SDS011;54772;53.544;49.324;2022-09-03T03:53:59;8.45;;;6.10;;
67995;SDS011;54772;53.544;49.324;2022-09-03T03:56:26;9.20;;;6.10;;
67995;SDS011;54772;53.544;49.324;2022-09-03T03:58:53;8.15;;;5.90;;
67995;SDS011;54772;53.544;49.324;2022-09-03T04:01:21;10.80;;;6.72;;
67995;SDS011;54772;53.544;49.324;2022-09-03T04:03:49;10.75;;;7.03;;
67995;SDS011;54772;53.544;49.324;2022-09-03T04:06:16;9.48;;;6.90;;
67995;SDS011;54772;53.544;49.324;2022-09-03T04:08:44;10.43;;;6.47;;
67995;SDS011;54772;53.544;49.324;2022-09-03T04:11:19;10.30;;;5.93;;
67995;SDS011;54772;53.544;49.324;2022-09-03T04:13:47;9.57;;;6.65;;
67995;SDS011;54772;53.544;49.324;2022-09-03T04:16:18;10.65;;;6.65;;
67995;SDS011;54772;53.544;49.324;2022-09-03T04:18:49;11.65;;;6.53;;
67995;SDS011;54772;53.544;49.324;2022-09-03T04:21:17;11.30;;;7.20;;
67995;SDS011;54772;53.544;49.324;2022-09-03T04:23:45;9.10;;;6.05;;
67995;SDS011;54772;53.544;49.324;2022-09-03T04:26:14;9.02;;;6.00;;
67995;SDS011;54772;53.544;49.324;2022-09-03T04:28:48;10.10;;;6.93;;
67995;SDS011;54772;53.544;49.324;2022-09-03T04:31:16;14.43;;;7.18;;
67995;SDS011;54772;53.544;49.324;2022-09-03T04:33:43;12.57;;;7.00;;
67995;SDS011;54772;53.544;49.324;2022-09-03T04:36:20;10.98;;;6.62;;
67995;SDS011;54772;53.544;49.324;2022-09-03T04:38:48;9.52;;;6.47;;
67995;SDS011;54772;53.544;49.324;2022-09-03T04:41:18;7.00;;;5.07;;
67995;SDS011;54772;53.544;49.324;2022-09-03T04:43:47;5.30;;;2.60;;
67995;SDS011;54772;53.544;49.324;2022-09-03T04:46:14;5.55;;;3.20;;
67995;SDS011;54772;53.544;49.324;2022-09-03T04:48:41;6.07;;;2.97;;
